EDT,Max TemperatureF,Mean TemperatureF,Min TemperatureF,Max Dew PointF,MeanDew PointF,Min DewpointF,Max Humidity, Mean Humidity, Min Humidity, Max Sea Level PressureIn, Mean Sea Level PressureIn, Min Sea Level PressureIn, Max VisibilityMiles, Mean VisibilityMiles, Min VisibilityMiles, Max Wind SpeedMPH, Mean Wind SpeedMPH, Max Gust SpeedMPH,PrecipitationIn, CloudCover, Events, WindDirDegrees
2013-5-1,66,50,34,46,40,31,93,70,32,30.47,30.44,30.37,10,10,10,14,3,20,0.00,0,,100
2013-5-2,72,54,37,47,38,33,100,76,29,30.46,30.42,30.36,10,7,0,14,2,20,0.00,2,Fog-Rain,83
2013-5-3,57,48,41,43,41,39,93,76,60,30.48,30.43,30.36,10,10,10,17,7,28,0.00,2,,25
2013-5-4,57,46,35,43,37,36,100,78,46,30.34,30.32,30.30,10,8,0,16,4,24,0.00,1,Fog,38
2013-5-5,61,48,37,44,40,36,96,74,47,30.31,30.28,30.24,10,9,5,14,6,20,0.00,1,,51
2013-5-6,66,55,44,50,47,42,100,84,54,30.30,30.23,30.17,10,8,0,12,4,,0.00,5,Fog,151
2013-5-7,72,58,44,59,50,45,100,88,65,30.19,30.17,30.14,10,5,0,14,2,,0.00,5,Fog,170
2013-5-8,71,60,50,61,56,48,100,90,73,30.19,30.14,30.04,10,7,0,18,4,24,0.27,5,Fog-Rain,121
2013-5-9,66,60,53,63,58,53,100,94,73,30.05,29.95,29.88,10,6,0,12,4,,0.09,8,Fog-Rain-Thunderstorm,166
2013-5-10,78,66,55,57,55,53,100,81,43,29.96,29.93,29.89,10,7,0,16,4,23,0.01,5,Fog,225
2013-5-11,66,60,55,61,57,53,100,93,78,29.95,29.85,29.72,10,6,0,18,7,34,0.91,7,Fog-Rain-Thunderstorm,197
2013-5-12,68,60,51,59,53,35,100,81,48,29.83,29.67,29.60,10,7,1,18,8,23,0.09,5,Rain,218
2013-5-13,59,47,37,35,31,26,89,49,34,30.01,29.95,29.85,10,10,10,23,8,30,0.00,2,,251
2013-5-14,57,48,39,37,31,28,86,52,35,30.05,30.01,29.97,10,10,10,14,5,20,0.00,5,,294
2013-5-15,63,48,35,54,44,33,97,76,38,30.06,29.91,29.70,10,10,8,22,7,32,0.01,4,Rain,196
2013-5-16,79,62,46,52,47,38,100,70,24,29.79,29.70,29.67,10,7,0,20,5,28,0.00,0,Fog,238
2013-5-17,69,56,45,48,43,39,93,59,39,30.23,30.01,29.80,10,10,10,13,5,21,0.00,2,,350
2013-5-18,71,56,41,50,45,38,97,73,31,30.31,30.27,30.22,10,10,2,15,3,21,0.00,2,,218
2013-5-19,69,56,44,52,47,43,100,79,49,30.35,30.31,30.25,10,7,1,16,4,21,0.15,3,Rain,186
2013-5-20,78,68,57,66,64,60,97,82,66,30.20,30.05,29.94,10,7,2,14,8,20,0.12,5,Rain,217
2013-5-21,82,68,54,69,60,54,100,94,67,29.97,29.93,29.86,10,5,0,15,2,22,0.08,4,Fog-Rain-Thunderstorm,79
2013-5-22,73,62,52,63,58,51,100,89,71,29.98,29.93,29.90,10,7,1,12,7,21,0.01,7,Rain,171
2013-5-23,69,64,60,64,62,60,100,93,84,29.94,29.92,29.86,10,6,1,21,14,32,0.15,8,Rain,213
2013-5-24,68,61,53,64,61,51,100,95,84,29.85,29.74,29.68,10,4,0,22,12,33,1.37,8,Fog-Rain,195
2013-5-25,54,48,42,51,47,38,96,89,85,29.76,29.73,29.68,10,8,2,12,6,23,0.23,8,Rain,330
2013-5-26,60,50,42,41,38,36,85,67,46,30.12,29.85,29.74,10,10,10,20,12,32,0.00,7,Rain,289
2013-5-27,72,58,45,45,40,32,86,57,25,30.17,30.12,30.08,10,10,10,16,9,25,0.00,0,,253
2013-5-28,71,56,41,56,49,40,97,75,44,30.24,30.21,30.18,10,10,10,14,4,29,0.00,2,,187
2013-5-29,72,64,57,63,59,55,100,90,73,30.21,30.10,30.02,10,7,2,16,9,23,0.56,6,Rain-Thunderstorm,192
2013-5-30,88,74,61,70,64,59,100,78,49,30.09,30.06,30.02,10,8,3,13,7,18,0.33,2,Rain-Thunderstorm,242
2013-5-31,89,76,63,69,64,60,97,68,43,30.09,30.04,29.98,10,9,4,15,5,22,0.00,0,,213